Peru, Nebraska
Current Conditions -  °F | °C
As of 4:35 PM on Monday 20 Oct 2014 (Local Time) from KAFK Reporting Station
Clear Clear  
Wind Chill: 71°   Ceiling: Unl
Heat Index: 71°   Visibility: 10mi
Dew Point: 26°   Wind: 3mph
Humidity: 19%   Direction: 10°N
Pressure: 30.04"   Gusts: NA
Location:  40.47°N, 95.73°W
Report Text: KAFK 202135Z AUTO 01003KT 10SM CLR 22/M03 A3004 RMK AO2 T02171033
Loading
Personal Weather Stations






























Interactive Weather Map New forecast layout! Learn more

10-Day Weather Forecast

Advertisements
Track Severe Weather on mobile